Time;durP1;ratioP1;P1;durP2;ratioP2;P2;SDS_P1;SDS_P2;PMS_P1;PMS_P2;Temp;Humidity;BMP_temperature;BMP_pressure;BME280_temperature;BME280_humidity;BME280_pressure;Samples;Min_cycle;Max_cycle;Signal;HPM_P1;HPM_P2
2023/01/26 00:00:05;;;;;;;69.03;19.67;;;-0.50;99.90;;;;;;5003142;28;20528;-64
2023/01/26 00:02:31;;;;;;;63.13;18.70;;;-0.60;99.90;;;;;;5026339;28;20037;-65
2023/01/26 00:04:56;;;;;;;63.70;18.88;;;-0.50;99.90;;;;;;5025479;28;20513;-65
2023/01/26 00:07:22;;;;;;;64.07;18.13;;;-0.50;99.90;;;;;;5024667;28;20489;-65
2023/01/26 00:09:47;;;;;;;68.25;19.20;;;-0.50;99.90;;;;;;5024602;28;20038;-65
2023/01/26 00:12:13;;;;;;;61.85;18.58;;;-0.50;99.90;;;;;;5021500;28;20045;-65
2023/01/26 00:14:50;;;;;;;62.33;18.40;;;-0.50;99.90;;;;;;5027793;28;20041;-65
2023/01/26 00:17:25;;;;;;;72.50;18.65;;;-0.50;99.90;;;;;;5038434;28;20041;-65
2023/01/26 00:19:53;;;;;;;63.42;19.38;;;-0.40;99.90;;;;;;5011582;28;20657;-65
2023/01/26 00:22:19;;;;;;;62.42;18.83;;;-0.40;99.90;;;;;;5024555;28;20535;-65
2023/01/26 00:24:44;;;;;;;63.47;18.48;;;-0.50;99.90;;;;;;5023116;28;20073;-65
2023/01/26 00:27:10;;;;;;;61.80;18.83;;;-0.40;99.90;;;;;;5029695;28;20033;-65
2023/01/26 00:29:35;;;;;;;59.97;19.08;;;-0.40;99.90;;;;;;5024468;28;20049;-65
2023/01/26 00:32:01;;;;;;;59.58;17.70;;;-0.50;99.90;;;;;;5028051;28;20049;-65
2023/01/26 00:34:26;;;;;;;63.10;17.23;;;-0.50;99.90;;;;;;5021459;28;20056;-65
2023/01/26 00:36:52;;;;;;;62.20;17.92;;;-0.50;99.90;;;;;;5031362;28;20114;-65
2023/01/26 00:39:17;;;;;;;60.08;17.08;;;-0.50;99.90;;;;;;5028007;28;20037;-64
2023/01/26 00:44:27;;;;;;;55.95;16.60;;;-0.40;99.90;;;;;;5021607;28;20045;-65
2023/01/26 00:46:52;;;;;;;56.08;15.95;;;-0.50;99.90;;;;;;5026944;28;20041;-65
2023/01/26 00:49:18;;;;;;;56.83;16.63;;;-0.50;99.90;;;;;;5021536;28;20068;-64
2023/01/26 00:51:43;;;;;;;52.58;16.73;;;-0.40;99.90;;;;;;5023380;28;20556;-64
2023/01/26 00:54:09;;;;;;;52.67;16.67;;;-0.50;99.90;;;;;;5019754;28;20712;-64
2023/01/26 00:56:35;;;;;;;58.28;16.58;;;-0.50;99.90;;;;;;5026763;28;20056;-64
2023/01/26 00:59:00;;;;;;;62.80;18.30;;;-0.40;99.90;;;;;;5025322;28;20544;-64
2023/01/26 01:01:26;;;;;;;51.13;14.43;;;-0.40;99.90;;;;;;5025406;28;20540;-64
2023/01/26 01:03:51;;;;;;;52.90;15.30;;;-0.40;99.90;;;;;;5024698;28;20390;-65
2023/01/26 01:06:17;;;;;;;52.70;16.10;;;-0.40;99.90;;;;;;5025164;28;20052;-65
2023/01/26 01:08:43;;;;;;;59.53;15.93;;;-0.20;99.90;;;;;;5029445;28;20041;-66
2023/01/26 01:11:11;;;;;;;57.92;14.88;;;-0.20;99.90;;;;;;5024399;28;20079;-65
2023/01/26 01:13:37;;;;;;;59.08;15.98;;;-0.10;99.90;;;;;;5019036;28;20700;-65
2023/01/26 01:16:07;;;;;;;48.95;15.93;;;-0.20;99.90;;;;;;5023852;28;20052;-66
2023/01/26 01:18:33;;;;;;;;;;;-0.10;99.90;;;;;;5026954;28;20044;-66
2023/01/26 01:20:58;;;;;;;51.53;15.95;;;-0.10;99.90;;;;;;5025716;28;19920;-66
2023/01/26 01:23:28;;;;;;;45.90;14.45;;;-0.10;99.90;;;;;;5026766;28;20072;-64
2023/01/26 01:25:57;;;;;;;58.85;17.00;;;0.00;99.90;;;;;;5026630;28;20042;-66
2023/01/26 01:28:23;;;;;;;54.47;16.15;;;0.00;99.90;;;;;;5039548;28;20080;-65
2023/01/26 01:30:48;;;;;;;54.80;16.17;;;0.00;99.90;;;;;;5019232;28;20037;-67
2023/01/26 01:33:14;;;;;;;54.42;15.07;;;0.00;99.90;;;;;;5024253;28;20041;-66
2023/01/26 01:35:39;;;;;;;48.28;14.73;;;0.00;99.90;;;;;;5026587;28;20467;-66
2023/01/26 01:38:05;;;;;;;54.63;15.40;;;0.00;99.90;;;;;;5026207;28;20037;-66
2023/01/26 01:40:31;;;;;;;56.58;15.55;;;0.00;99.90;;;;;;5020841;28;20128;-66
2023/01/26 01:42:56;;;;;;;60.55;16.23;;;0.00;99.90;;;;;;5015641;28;20038;-66
2023/01/26 01:45:25;;;;;;;59.83;16.48;;;0.00;99.90;;;;;;5017685;28;20060;-66
2023/01/26 01:47:55;;;;;;;56.03;16.15;;;0.10;99.90;;;;;;5025485;28;20547;-66
2023/01/26 01:50:22;;;;;;;60.75;16.42;;;0.10;99.90;;;;;;5025972;28;20036;-66
2023/01/26 01:52:48;;;;;;;59.55;16.08;;;0.10;99.90;;;;;;5011407;28;20076;-66
2023/01/26 01:55:15;;;;;;;55.80;15.45;;;0.10;99.90;;;;;;5009442;28;20445;-66
2023/01/26 01:57:52;;;;;;;63.90;17.23;;;0.00;99.90;;;;;;5023314;28;20136;-66
2023/01/26 02:00:20;;;;;;;48.28;15.63;;;0.10;99.90;;;;;;5018598;28;20122;-67
2023/01/26 02:03:13;;;;;;;45.88;14.45;;;0.00;99.90;;;;;;5005681;28;20041;-66
2023/01/26 02:06:05;;;;;;;53.53;15.27;;;0.00;99.90;;;;;;5024467;28;20476;-67
2023/01/26 02:08:38;;;;;;;45.75;14.48;;;0.10;99.90;;;;;;5008708;28;20505;-67
2023/01/26 02:11:11;;;;;;;52.38;15.27;;;0.10;99.90;;;;;;5018246;28;20413;-67
2023/01/26 02:13:39;;;;;;;42.35;13.02;;;0.10;99.90;;;;;;5023837;28;20088;-66
2023/01/26 02:16:05;;;;;;;51.63;13.57;;;0.00;99.90;;;;;;5014244;28;20037;-66
2023/01/26 02:18:31;;;;;;;49.22;14.63;;;0.10;99.90;;;;;;5021162;28;20037;-67
2023/01/26 02:21:02;;;;;;;53.38;15.02;;;0.10;99.90;;;;;;5023380;28;20408;-67
2023/01/26 02:23:49;;;;;;;45.75;14.25;;;0.00;99.90;;;;;;5024182;28;20788;-66
2023/01/26 02:26:18;;;;;;;56.15;15.77;;;0.10;99.90;;;;;;5007956;28;20033;-67
2023/01/26 02:28:46;;;;;;;41.95;13.82;;;0.10;99.90;;;;;;5041958;28;20032;-67
2023/01/26 02:31:12;;;;;;;51.17;14.32;;;0.10;99.90;;;;;;5016269;28;20041;-68
2023/01/26 02:33:37;;;;;;;43.63;13.35;;;0.10;99.90;;;;;;5022292;28;20099;-66
2023/01/26 02:36:04;;;;;;;45.70;13.02;;;0.10;99.90;;;;;;5019295;28;20037;-68
2023/01/26 02:38:40;;;;;;;48.22;14.23;;;0.10;99.90;;;;;;5024057;28;20036;-68
2023/01/26 02:41:11;;;;;;;46.72;14.52;;;0.10;99.90;;;;;;5017683;28;20092;-67
2023/01/26 02:43:37;;;;;;;45.10;13.98;;;0.10;99.90;;;;;;5020633;28;20091;-67
2023/01/26 02:46:03;;;;;;;47.08;14.55;;;0.20;99.90;;;;;;5018854;28;20447;-67
2023/01/26 02:51:13;;;;;;;43.78;13.15;;;0.20;99.90;;;;;;5023300;28;20052;-68
2023/01/26 02:53:38;;;;;;;46.58;13.18;;;0.10;99.90;;;;;;5025485;28;20037;-68
2023/01/26 02:56:04;;;;;;;41.03;13.20;;;0.10;99.90;;;;;;5028118;28;20552;-68
2023/01/26 02:58:30;;;;;;;48.42;12.60;;;0.10;99.90;;;;;;5023949;28;20037;-67
2023/01/26 03:00:55;;;;;;;48.50;14.23;;;0.10;99.90;;;;;;5017888;28;20048;-67
2023/01/26 03:03:40;;;;;;;48.30;13.95;;;0.10;99.90;;;;;;5025602;28;20473;-67
2023/01/26 03:06:08;;;;;;;42.38;13.27;;;0.10;99.90;;;;;;5027675;28;20046;-68
2023/01/26 03:08:33;;;;;;;46.08;13.35;;;0.10;99.90;;;;;;5017818;28;20377;-67
2023/01/26 03:10:59;;;;;;;41.17;12.77;;;0.20;99.90;;;;;;5018677;28;20120;-66
2023/01/26 03:13:25;;;;;;;46.90;13.20;;;0.20;99.90;;;;;;5023629;28;20048;-66
2023/01/26 03:15:53;;;;;;;44.08;13.52;;;0.20;99.90;;;;;;5021314;28;20045;-68
2023/01/26 03:29:29;;;;;;;48.00;12.75;;;0.20;99.90;;;;;;5023051;28;20045;-66
2023/01/26 03:31:55;;;;;;;53.97;13.43;;;0.20;99.90;;;;;;5020415;28;20041;-66
2023/01/26 03:34:21;;;;;;;43.25;12.68;;;0.20;99.90;;;;;;5018543;28;20489;-67
2023/01/26 03:36:47;;;;;;;43.85;11.82;;;0.20;99.90;;;;;;5030618;28;20067;-66
2023/01/26 03:41:06;;;;;;;38.00;11.63;;;0.20;99.90;;;;;;5021506;28;20050;-66
2023/01/26 03:58:29;;;;;;;40.28;11.30;;;0.20;99.90;;;;;;5025482;28;20041;-66
2023/01/26 04:00:55;;;;;;;45.15;12.65;;;0.20;99.90;;;;;;5021680;28;20053;-67
2023/01/26 04:08:49;;;;;;;46.55;11.95;;;0.20;99.90;;;;;;5024568;28;20046;-66
2023/01/26 04:11:14;;;;;;;42.47;11.75;;;0.20;99.90;;;;;;5025364;28;20055;-67
2023/01/26 04:21:52;;;;;;;35.65;10.68;;;0.20;99.90;;;;;;5022012;28;20053;-66
2023/01/26 04:24:20;;;;;;;39.38;10.88;;;0.20;99.90;;;;;;5021107;28;20418;-67
2023/01/26 04:26:46;;;;;;;34.17;11.52;;;0.20;99.90;;;;;;5025977;28;20053;-66
2023/01/26 04:29:14;;;;;;;31.80;10.57;;;0.20;99.90;;;;;;5021470;28;20038;-67
2023/01/26 04:31:40;;;;;;;33.97;9.75;;;0.20;99.90;;;;;;5006976;28;20489;-66
2023/01/26 04:34:10;;;;;;;36.55;10.30;;;0.20;99.90;;;;;;5022544;28;20042;-66
2023/01/26 04:36:36;;;;;;;33.60;9.68;;;0.20;99.90;;;;;;5022084;28;20087;-66
2023/01/26 04:39:02;;;;;;;30.52;8.43;;;0.20;99.90;;;;;;5020894;28;20041;-66
2023/01/26 04:41:28;;;;;;;25.55;9.27;;;0.20;99.90;;;;;;5005452;28;20762;-66
2023/01/26 04:43:54;;;;;;;40.92;10.70;;;0.20;99.90;;;;;;4986157;28;20092;-66
2023/01/26 04:46:19;;;;;;;30.45;9.23;;;0.20;99.90;;;;;;5013417;28;20041;-66
2023/01/26 04:48:45;;;;;;;27.80;9.20;;;0.20;99.90;;;;;;5020562;28;20055;-66
2023/01/26 04:51:13;;;;;;;28.80;10.07;;;0.20;99.90;;;;;;5019193;28;20061;-67
2023/01/26 04:53:39;;;;;;;33.38;9.18;;;0.20;99.90;;;;;;5012020;28;20738;-67
2023/01/26 04:56:04;;;;;;;25.77;9.73;;;0.20;99.90;;;;;;5013818;28;20030;-66
2023/01/26 04:58:31;;;;;;;29.88;9.30;;;0.30;99.90;;;;;;5021371;28;20535;-66
2023/01/26 05:00:57;;;;;;;28.63;9.32;;;0.20;99.90;;;;;;5007024;28;20404;-67
2023/01/26 05:03:26;;;;;;;28.60;9.48;;;0.20;99.90;;;;;;5017290;28;20042;-66
2023/01/26 05:05:53;;;;;;;30.20;8.80;;;0.30;99.90;;;;;;5031485;28;20449;-66
2023/01/26 05:08:20;;;;;;;28.92;9.43;;;0.30;99.90;;;;;;5023932;28;20041;-66
2023/01/26 05:10:47;;;;;;;29.30;9.45;;;0.30;99.90;;;;;;5020932;28;20678;-66
2023/01/26 05:13:12;;;;;;;26.45;8.13;;;0.30;99.90;;;;;;5025018;28;20045;-66
2023/01/26 05:15:38;;;;;;;30.95;9.00;;;0.30;99.90;;;;;;5018710;28;20041;-65
2023/01/26 05:18:05;;;;;;;33.65;9.48;;;0.20;99.90;;;;;;5029789;28;20033;-66
2023/01/26 05:20:31;;;;;;;27.48;9.02;;;0.20;99.90;;;;;;5028523;28;20048;-65
2023/01/26 05:22:56;;;;;;;24.75;8.50;;;0.20;99.90;;;;;;5027802;28;20157;-66
2023/01/26 05:25:22;;;;;;;28.63;8.73;;;0.30;99.90;;;;;;5022079;28;20542;-65
2023/01/26 05:27:47;;;;;;;24.50;7.97;;;0.20;99.90;;;;;;5025121;28;20448;-65
2023/01/26 05:30:13;;;;;;;22.65;8.25;;;0.30;99.90;;;;;;5026733;28;20025;-65
2023/01/26 05:32:39;;;;;;;25.25;8.52;;;0.30;99.90;;;;;;5023800;28;20422;-65
2023/01/26 05:35:06;;;;;;;22.27;7.78;;;0.30;99.90;;;;;;5021014;28;20049;-65
2023/01/26 05:37:32;;;;;;;27.42;9.10;;;0.30;99.90;;;;;;5027193;28;20136;-65
2023/01/26 05:39:58;;;;;;;29.05;8.68;;;0.30;99.90;;;;;;5026269;28;20048;-65
2023/01/26 05:42:24;;;;;;;24.73;9.20;;;0.30;99.90;;;;;;5025407;28;20491;-65
2023/01/26 05:44:50;;;;;;;30.17;9.15;;;0.30;99.90;;;;;;5023163;28;20448;-65
2023/01/26 05:47:16;;;;;;;28.52;9.55;;;0.30;99.90;;;;;;5022458;28;20038;-65
2023/01/26 05:49:42;;;;;;;28.67;9.70;;;0.30;99.90;;;;;;5022053;28;20037;-65
2023/01/26 05:52:09;;;;;;;28.10;9.15;;;0.30;99.90;;;;;;5021704;28;20717;-65
2023/01/26 05:54:35;;;;;;;31.08;10.13;;;0.30;99.90;;;;;;5018467;28;20116;-65
2023/01/26 05:57:01;;;;;;;36.47;10.52;;;0.30;99.90;;;;;;5027779;28;20425;-64
2023/01/26 05:59:26;;;;;;;28.30;8.95;;;0.30;99.90;;;;;;5020727;28;20800;-65
2023/01/26 06:01:52;;;;;;;32.55;10.23;;;0.30;99.90;;;;;;5026776;28;20045;-65
2023/01/26 06:04:18;;;;;;;45.15;11.35;;;0.30;99.90;;;;;;5020446;28;20063;-65
2023/01/26 06:06:43;;;;;;;36.47;9.82;;;0.30;99.90;;;;;;5025618;28;20101;-65
2023/01/26 06:09:09;;;;;;;38.95;9.80;;;0.40;99.90;;;;;;5021935;28;20489;-64
2023/01/26 06:11:35;;;;;;;39.88;11.23;;;0.30;99.90;;;;;;5027170;28;20054;-64
2023/01/26 06:14:01;;;;;;;46.15;12.50;;;0.30;99.90;;;;;;5025464;28;20083;-64
2023/01/26 06:16:26;;;;;;;36.90;10.73;;;0.30;99.90;;;;;;5026158;28;20037;-65
2023/01/26 06:18:52;;;;;;;43.03;11.02;;;0.40;99.90;;;;;;5026902;28;20049;-65
2023/01/26 06:21:17;;;;;;;45.90;11.45;;;0.40;99.90;;;;;;5040476;28;20599;-65
2023/01/26 06:23:43;;;;;;;48.58;13.80;;;0.40;99.90;;;;;;5024968;28;20041;-65
2023/01/26 06:26:09;;;;;;;45.25;12.52;;;0.40;99.90;;;;;;5025261;28;20499;-64
2023/01/26 06:28:35;;;;;;;46.42;12.43;;;0.40;99.90;;;;;;5025824;28;20044;-65
2023/01/26 06:31:05;;;;;;;57.17;14.13;;;0.40;99.90;;;;;;5033693;28;20041;-65
2023/01/26 06:33:33;;;;;;;65.72;14.05;;;0.40;99.90;;;;;;5024355;28;20041;-64
2023/01/26 06:36:13;;;;;;;50.65;13.77;;;0.40;99.90;;;;;;5025461;28;20390;-65
2023/01/26 06:38:45;;;;;;;53.35;14.73;;;0.40;99.90;;;;;;5022088;28;20083;-65
2023/01/26 06:41:11;;;;;;;45.88;12.60;;;0.50;99.90;;;;;;5027567;28;20048;-64
2023/01/26 06:43:36;;;;;;;48.85;13.40;;;0.50;99.90;;;;;;5030549;28;20029;-64
2023/01/26 06:46:03;;;;;;;67.90;18.95;;;0.50;99.90;;;;;;5022883;28;20495;-64
2023/01/26 06:48:31;;;;;;;48.65;14.07;;;0.50;99.90;;;;;;5019521;28;20037;-64
2023/01/26 06:51:23;;;;;;;77.05;18.17;;;0.50;99.90;;;;;;5020892;28;20045;-64
2023/01/26 06:53:57;;;;;;;56.85;15.60;;;0.50;99.90;;;;;;4996283;28;20410;-65
2023/01/26 06:56:24;;;;;;;52.08;13.70;;;0.50;99.90;;;;;;5018638;28;20041;-64
2023/01/26 06:58:50;;;;;;;57.72;14.55;;;0.60;99.90;;;;;;5019885;28;20128;-64
2023/01/26 07:01:24;;;;;;;52.65;13.82;;;0.60;99.90;;;;;;5040652;28;20044;-65
2023/01/26 07:03:52;;;;;;;52.72;15.55;;;0.60;99.90;;;;;;5027383;28;20049;-64
2023/01/26 07:06:17;;;;;;;53.45;13.18;;;0.60;99.90;;;;;;5029895;28;20038;-64
2023/01/26 07:08:43;;;;;;;63.15;14.18;;;0.70;99.90;;;;;;5027526;28;20089;-64
2023/01/26 07:11:09;;;;;;;41.30;12.07;;;0.70;99.90;;;;;;5026985;28;20075;-64
2023/01/26 07:13:35;;;;;;;61.97;13.85;;;0.70;99.90;;;;;;5026886;28;20064;-64
2023/01/26 07:16:05;;;;;;;72.22;14.85;;;0.70;99.90;;;;;;5017878;28;20045;-65
2023/01/26 07:18:34;;;;;;;49.97;12.68;;;0.70;99.90;;;;;;5021141;28;20065;-64
2023/01/26 07:21:01;;;;;;;64.72;14.20;;;0.80;99.90;;;;;;5023555;28;20034;-64
2023/01/26 07:23:26;;;;;;;60.97;13.27;;;0.80;99.90;;;;;;5027579;28;20542;-64
2023/01/26 07:25:52;;;;;;;60.60;14.63;;;0.80;99.90;;;;;;5027562;28;20045;-64
2023/01/26 07:28:17;;;;;;;65.65;14.70;;;0.80;99.90;;;;;;5014750;28;20030;-64
2023/01/26 07:30:43;;;;;;;51.72;12.77;;;0.80;99.90;;;;;;5018222;28;20033;-64
2023/01/26 07:33:09;;;;;;;62.75;14.90;;;0.90;99.90;;;;;;5027605;28;20041;-64
2023/01/26 07:35:34;;;;;;;54.80;12.82;;;0.90;99.90;;;;;;5026726;28;20128;-64
2023/01/26 07:38:02;;;;;;;63.85;14.07;;;0.90;99.90;;;;;;5022631;28;20156;-64
2023/01/26 07:40:27;;;;;;;60.70;15.55;;;0.90;99.90;;;;;;5024118;28;20057;-64
2023/01/26 07:42:54;;;;;;;66.03;15.25;;;0.90;99.90;;;;;;5020654;28;20080;-64
2023/01/26 07:45:20;;;;;;;56.60;13.60;;;1.00;99.90;;;;;;5022465;28;20037;-64
2023/01/26 07:47:46;;;;;;;45.75;13.65;;;1.00;99.90;;;;;;5016768;28;20045;-64
2023/01/26 07:50:12;;;;;;;54.97;13.38;;;1.00;99.90;;;;;;5019343;28;20100;-64
2023/01/26 07:52:38;;;;;;;56.60;13.52;;;1.10;99.90;;;;;;5017722;28;20042;-64
2023/01/26 07:55:04;;;;;;;55.03;13.70;;;1.10;99.90;;;;;;5032970;28;20057;-64
2023/01/26 07:57:30;;;;;;;60.15;13.35;;;1.10;99.90;;;;;;5022655;28;20493;-65
2023/01/26 07:59:56;;;;;;;54.55;13.60;;;1.10;99.90;;;;;;5010992;28;20103;-64
2023/01/26 08:02:22;;;;;;;69.45;13.93;;;1.20;99.90;;;;;;5020292;28;20042;-64
2023/01/26 08:04:48;;;;;;;66.32;14.60;;;1.20;99.90;;;;;;5022077;28;20473;-64
2023/01/26 08:07:13;;;;;;;62.97;13.02;;;1.20;99.90;;;;;;5019585;28;20042;-65
2023/01/26 08:09:39;;;;;;;49.63;12.10;;;1.20;99.90;;;;;;5022360;28;20673;-64
2023/01/26 08:12:06;;;;;;;39.88;11.07;;;1.20;99.90;;;;;;5028389;28;20401;-64
2023/01/26 08:14:31;;;;;;;43.70;12.02;;;1.20;99.90;;;;;;5025400;28;20045;-64
2023/01/26 08:16:57;;;;;;;60.53;13.85;;;1.10;99.90;;;;;;5023037;28;20511;-64
2023/01/26 08:19:23;;;;;;;50.30;12.30;;;1.10;99.90;;;;;;5019421;28;20506;-64
2023/01/26 08:21:48;;;;;;;50.95;11.95;;;1.10;99.90;;;;;;5026276;28;20099;-64
2023/01/26 08:24:14;;;;;;;82.70;15.18;;;1.00;99.90;;;;;;5027433;28;20489;-64
2023/01/26 08:26:39;;;;;;;101.03;15.93;;;1.00;99.90;;;;;;5021422;28;20038;-64
2023/01/26 08:29:06;;;;;;;49.63;10.65;;;1.00;99.90;;;;;;5030529;28;20900;-64
2023/01/26 08:31:32;;;;;;;45.53;10.25;;;1.00;99.90;;;;;;5026062;28;20037;-64
2023/01/26 08:33:58;;;;;;;48.97;11.48;;;1.00;99.90;;;;;;5028600;28;20401;-64
2023/01/26 08:36:24;;;;;;;39.55;10.18;;;1.00;99.90;;;;;;5022775;28;20096;-64
2023/01/26 08:38:50;;;;;;;63.40;13.15;;;1.00;99.90;;;;;;5030439;28;20041;-64
2023/01/26 08:41:16;;;;;;;48.35;10.93;;;1.00;99.90;;;;;;5029424;28;20041;-64
2023/01/26 08:43:42;;;;;;;51.33;10.85;;;0.90;99.90;;;;;;5022466;28;20365;-64
2023/01/26 08:46:08;;;;;;;37.38;10.85;;;0.90;99.90;;;;;;5025276;28;20479;-64
2023/01/26 08:48:33;;;;;;;42.63;10.65;;;0.90;99.90;;;;;;5018692;28;20080;-64
2023/01/26 08:51:01;;;;;;;56.45;11.23;;;1.00;99.90;;;;;;5025972;28;20136;-63
2023/01/26 08:53:29;;;;;;;42.00;9.40;;;1.00;99.90;;;;;;5018121;28;20040;-64
2023/01/26 08:55:55;;;;;;;39.45;10.60;;;1.00;99.90;;;;;;5017210;28;20514;-64
2023/01/26 08:58:20;;;;;;;28.25;8.00;;;1.10;99.90;;;;;;5018929;28;20038;-65
2023/01/26 09:00:46;;;;;;;36.90;8.13;;;1.20;99.90;;;;;;5021016;28;20126;-64
2023/01/26 09:03:12;;;;;;;31.67;8.93;;;1.30;99.90;;;;;;5023927;28;20566;-65
2023/01/26 09:05:39;;;;;;;35.33;8.95;;;1.40;99.90;;;;;;5031770;28;20527;-65
2023/01/26 09:08:06;;;;;;;31.83;7.85;;;1.50;99.90;;;;;;5024754;28;20043;-65
2023/01/26 09:10:32;;;;;;;31.33;6.88;;;1.70;99.90;;;;;;5025163;28;20110;-66
2023/01/26 09:12:59;;;;;;;34.00;6.95;;;1.80;99.90;;;;;;5026661;28;20156;-66
2023/01/26 09:15:25;;;;;;;26.23;6.50;;;1.90;99.90;;;;;;5026501;28;20052;-67
2023/01/26 09:17:51;;;;;;;42.90;6.93;;;2.00;99.90;;;;;;5020311;28;20045;-66
2023/01/26 09:20:17;;;;;;;36.70;7.20;;;2.20;99.90;;;;;;5026983;28;20041;-66
2023/01/26 09:22:43;;;;;;;39.30;7.55;;;2.30;99.90;;;;;;5019770;28;20045;-66
2023/01/26 09:25:09;;;;;;;35.10;6.75;;;2.40;99.90;;;;;;5025229;28;20084;-66
2023/01/26 09:27:35;;;;;;;34.20;6.55;;;2.40;99.90;;;;;;5030374;28;20037;-66
2023/01/26 09:30:02;;;;;;;39.75;6.38;;;2.50;99.90;;;;;;5020077;28;20494;-66
2023/01/26 09:32:28;;;;;;;44.75;6.50;;;2.60;99.90;;;;;;5021189;28;20049;-67
2023/01/26 09:34:54;;;;;;;33.90;5.70;;;2.70;99.90;;;;;;5023205;28;20038;-67
2023/01/26 09:37:20;;;;;;;38.92;7.72;;;2.80;99.90;;;;;;5030103;28;20128;-67
2023/01/26 09:39:46;;;;;;;36.63;7.40;;;2.90;99.90;;;;;;5029636;28;20085;-67
2023/01/26 09:42:42;;;;;;;32.10;5.80;;;3.00;99.90;;;;;;5025794;28;20029;-67
2023/01/26 09:45:10;;;;;;;34.97;7.57;;;3.20;99.90;;;;;;5022185;28;20049;-67
2023/01/26 09:48:11;;;;;;;31.33;5.85;;;3.30;99.90;;;;;;5024500;28;20065;-67
2023/01/26 09:51:00;;;;;;;35.70;6.22;;;3.50;99.90;;;;;;4967367;28;20096;-68
2023/01/26 09:54:05;;;;;;;27.30;5.10;;;3.60;99.90;;;;;;5021810;28;20124;-67
2023/01/26 09:56:32;;;;;;;30.45;5.38;;;3.70;99.90;;;;;;4999321;28;20072;-67
2023/01/26 09:59:38;;;;;;;36.42;5.40;;;3.80;99.90;;;;;;5028671;28;20056;-66
2023/01/26 10:02:24;;;;;;;28.25;4.95;;;3.90;99.90;;;;;;5014652;28;20049;-67
2023/01/26 10:04:54;;;;;;;33.72;6.05;;;4.00;99.90;;;;;;5025890;28;20046;-67
2023/01/26 10:07:20;;;;;;;32.40;4.90;;;4.10;99.90;;;;;;5027814;28;20038;-67
2023/01/26 10:09:49;;;;;;;29.38;5.78;;;4.30;99.90;;;;;;5027706;28;20087;-67
2023/01/26 10:12:35;;;;;;;32.30;6.50;;;4.30;99.90;;;;;;5025698;28;20053;-66
2023/01/26 10:15:15;;;;;;;39.08;5.35;;;4.40;99.90;;;;;;5026339;28;20095;-66
2023/01/26 10:17:45;;;;;;;32.25;4.32;;;4.50;99.90;;;;;;5024420;28;20477;-67
2023/01/26 10:20:14;;;;;;;44.20;6.90;;;4.50;99.90;;;;;;5022889;28;20129;-66
2023/01/26 10:22:44;;;;;;;31.77;5.45;;;4.50;99.90;;;;;;5021505;28;20042;-67
2023/01/26 10:25:13;;;;;;;;;;;4.60;99.90;;;;;;5023537;28;20033;-67
2023/01/26 10:27:39;;;;;;;36.20;4.90;;;4.70;99.90;;;;;;5026748;28;19955;-67
2023/01/26 10:30:05;;;;;;;35.05;5.32;;;4.70;99.90;;;;;;5026520;28;20465;-67
2023/01/26 10:32:31;;;;;;;38.78;5.43;;;4.90;99.90;;;;;;5023214;28;20496;-66
2023/01/26 10:34:56;;;;;;;29.58;5.43;;;4.90;99.90;;;;;;5026373;28;20073;-65
2023/01/26 10:37:29;;;;;;;36.95;5.47;;;5.00;99.90;;;;;;5027553;28;20120;-65
2023/01/26 10:40:04;;;;;;;40.70;5.18;;;5.00;99.90;;;;;;5021935;28;20056;-66
2023/01/26 10:42:32;;;;;;;32.10;6.43;;;5.10;99.90;;;;;;5026691;28;20045;-65
2023/01/26 10:45:00;;;;;;;27.20;4.75;;;5.20;99.90;;;;;;5023908;28;20060;-66
2023/01/26 10:47:27;;;;;;;27.80;5.32;;;5.20;99.90;;;;;;5029383;28;20140;-66
2023/01/26 10:50:20;;;;;;;31.30;5.15;;;5.30;99.90;;;;;;5025588;28;20047;-66
2023/01/26 10:53:01;;;;;;;30.42;4.88;;;5.30;99.90;;;;;;5025829;28;20061;-66
2023/01/26 10:55:28;;;;;;;31.48;5.75;;;5.50;99.90;;;;;;5022374;28;20124;-67
2023/01/26 10:57:54;;;;;;;31.92;5.68;;;5.60;99.90;;;;;;5030663;28;20099;-66
2023/01/26 11:00:24;;;;;;;29.75;4.13;;;5.60;99.90;;;;;;5023439;28;20041;-67
2023/01/26 11:02:51;;;;;;;;;;;5.80;99.90;;;;;;5022719;28;20098;-66
2023/01/26 11:05:25;;;;;;;35.17;4.90;;;5.70;99.90;;;;;;5027430;28;19917;-67
2023/01/26 11:07:59;;;;;;;31.85;4.82;;;5.80;99.90;;;;;;5027774;28;21017;-66
2023/01/26 11:10:34;;;;;;;29.85;5.05;;;5.80;99.90;;;;;;5019645;28;20041;-68
2023/01/26 11:13:12;;;;;;;27.17;3.67;;;5.90;99.90;;;;;;5002551;28;20045;-66
2023/01/26 11:15:40;;;;;;;28.42;4.35;;;6.00;99.90;;;;;;5003722;28;20037;-66
2023/01/26 11:18:41;;;;;;;29.85;4.38;;;6.10;99.90;;;;;;4992219;28;20042;-66
2023/01/26 11:21:20;;;;;;;28.58;3.75;;;6.10;99.90;;;;;;5009047;28;20045;-67
2023/01/26 11:23:58;;;;;;;31.67;4.22;;;6.20;99.90;;;;;;5005310;28;20141;-66
2023/01/26 11:26:34;;;;;;;20.42;3.47;;;6.20;99.90;;;;;;4998451;28;20530;-66
2023/01/26 11:29:30;;;;;;;19.67;3.45;;;6.20;99.90;;;;;;5005218;28;20040;-68
2023/01/26 11:32:25;;;;;;;26.80;4.45;;;6.30;99.90;;;;;;5005354;28;20382;-67
2023/01/26 11:35:21;;;;;;;23.33;3.65;;;6.30;99.90;;;;;;4970070;28;20054;-66
2023/01/26 11:38:21;;;;;;;26.92;4.88;;;6.40;99.90;;;;;;5005713;28;20045;-67
2023/01/26 11:40:56;;;;;;;29.20;3.58;;;6.40;99.90;;;;;;4991112;28;20050;-66
2023/01/26 11:43:55;;;;;;;22.38;3.88;;;6.40;99.90;;;;;;4999511;28;20092;-65
2023/01/26 11:46:39;;;;;;;26.73;3.35;;;6.60;99.90;;;;;;4992431;28;20037;-67
2023/01/26 11:49:22;;;;;;;31.67;4.75;;;6.70;99.90;;;;;;4989441;28;20390;-67
2023/01/26 11:52:23;;;;;;;20.40;3.20;;;6.70;99.90;;;;;;4998104;28;20069;-67
2023/01/26 11:55:15;;;;;;;21.70;3.95;;;6.70;99.90;;;;;;4969503;28;20093;-67
2023/01/26 11:58:28;;;;;;;19.58;3.10;;;6.80;99.90;;;;;;5010231;28;20050;-66
2023/01/26 12:00:58;;;;;;;15.27;3.17;;;6.80;99.90;;;;;;5004300;28;20054;-66
2023/01/26 12:03:34;;;;;;;24.55;5.03;;;6.70;99.90;;;;;;5024363;28;20351;-66
2023/01/26 12:06:38;;;;;;;24.27;3.15;;;6.70;99.90;;;;;;5010241;28;20537;-67
2023/01/26 12:09:09;;;;;;;21.85;3.28;;;6.80;99.90;;;;;;4997338;28;20381;-67
2023/01/26 12:11:41;;;;;;;25.38;3.20;;;6.90;99.90;;;;;;5019391;28;20084;-66
2023/01/26 12:14:21;;;;;;;22.23;2.90;;;7.00;99.90;;;;;;5033671;28;20048;-66
2023/01/26 12:17:02;;;;;;;16.90;2.73;;;7.10;99.90;;;;;;5027531;28;20042;-65
2023/01/26 12:19:52;;;;;;;16.48;2.70;;;7.20;99.90;;;;;;5030508;28;20291;-68
2023/01/26 12:22:29;;;;;;;18.25;2.80;;;7.20;99.90;;;;;;5012430;28;20056;-66
2023/01/26 12:25:22;;;;;;;13.88;3.03;;;7.20;99.90;;;;;;5031054;28;20044;-68
2023/01/26 12:28:17;;;;;;;17.30;2.30;;;7.10;99.90;;;;;;5033271;28;20030;-65
2023/01/26 12:31:01;;;;;;;13.20;2.22;;;6.80;99.90;;;;;;5020569;28;20558;-66
2023/01/26 12:33:26;;;;;;;13.43;1.65;;;6.70;99.90;;;;;;5033391;28;20065;-66
2023/01/26 12:36:15;;;;;;;9.32;1.55;;;6.60;99.90;;;;;;5030276;28;20101;-67
2023/01/26 12:38:53;;;;;;;13.80;1.90;;;6.50;99.90;;;;;;5021827;28;20416;-67
2023/01/26 12:41:50;;;;;;;10.90;2.20;;;6.40;99.90;;;;;;5030621;28;20034;-67
2023/01/26 12:44:29;;;;;;;10.82;1.90;;;6.40;99.90;;;;;;5033785;28;20045;-68
2023/01/26 12:47:09;;;;;;;15.75;2.53;;;6.50;99.90;;;;;;5027100;28;20041;-67
2023/01/26 12:49:44;;;;;;;12.48;1.80;;;6.60;99.90;;;;;;5027416;28;20029;-67
2023/01/26 12:52:13;;;;;;;18.05;2.53;;;6.70;99.90;;;;;;5030071;28;20053;-67
2023/01/26 12:55:03;;;;;;;13.27;2.50;;;6.60;99.90;;;;;;5029603;28;20045;-66
2023/01/26 12:58:03;;;;;;;21.17;2.75;;;6.70;99.90;;;;;;5030359;28;20060;-67
2023/01/26 13:00:31;;;;;;;11.13;2.23;;;6.70;99.90;;;;;;5025146;28;20045;-67
2023/01/26 13:03:19;;;;;;;12.73;2.28;;;6.70;99.90;;;;;;5029064;28;20135;-66
2023/01/26 13:05:58;;;;;;;12.77;1.90;;;6.70;99.90;;;;;;5032893;28;20425;-66
2023/01/26 13:08:29;;;;;;;16.52;3.00;;;6.90;99.90;;;;;;5033812;28;20120;-66
2023/01/26 13:10:55;;;;;;;10.85;2.13;;;7.10;99.90;;;;;;5024932;28;20058;-66
2023/01/26 13:13:33;;;;;;;13.02;1.85;;;7.10;99.90;;;;;;5026827;28;20878;-65
2023/01/26 13:16:16;;;;;;;13.68;1.95;;;7.10;99.90;;;;;;5025768;28;20050;-67
2023/01/26 13:18:56;;;;;;;11.90;2.20;;;7.00;99.90;;;;;;5029181;28;20441;-66
2023/01/26 13:21:27;;;;;;;10.97;1.77;;;7.10;99.90;;;;;;5031224;28;20037;-65
2023/01/26 13:23:53;;;;;;;11.15;2.08;;;7.10;99.90;;;;;;5029748;28;20068;-66
2023/01/26 13:26:31;;;;;;;15.18;2.30;;;7.10;99.90;;;;;;5022197;28;20026;-66
2023/01/26 13:29:27;;;;;;;15.25;1.85;;;7.10;99.90;;;;;;5028787;28;20052;-66
2023/01/26 13:32:01;;;;;;;7.80;1.95;;;7.00;99.90;;;;;;5028713;28;20443;-65
2023/01/26 13:34:56;;;;;;;15.88;1.80;;;6.90;99.90;;;;;;5029517;28;20037;-66
2023/01/26 13:37:42;;;;;;;16.65;2.63;;;6.90;99.90;;;;;;5026161;28;20131;-65
2023/01/26 13:40:27;;;;;;;9.35;1.85;;;6.80;99.90;;;;;;5030296;28;20041;-66
2023/01/26 13:43:02;;;;;;;10.95;1.77;;;6.80;99.90;;;;;;5030369;28;20052;-63
2023/01/26 13:45:39;;;;;;;11.75;1.92;;;6.80;99.90;;;;;;5031119;28;20482;-66